Corpus Christi, Texas
Current Conditions -  °F | °C
As of 12:59 AM on Monday 22 Dec 2014 (Local Time) from KCRP Reporting Station
Haze Haze  
Wind Chill: 57°   Ceiling: 200
Heat Index: 57°   Visibility: 1.7mi
Dew Point: 55°   Wind: 6mph
Humidity: 93%   Direction: 220°SW
Pressure: 29.83"   Gusts: NA
Location:  27.8°N, 97.4°W
Report Text: KCRP 220659Z 22005KT 1 3/4SM BR OVC002 14/13 A2983 RMK AO2 T01390128 $
Loading
Personal Weather Stations






























Interactive Weather Map New forecast layout! Learn more

10-Day Weather Forecast

Advertisements
Track Severe Weather on mobile